createdAt,value
2022-08-18T00:01:05.251Z,98095.66
2022-08-18T00:03:53.181Z,98105.22
2022-08-18T00:06:20.437Z,98100.69
2022-08-18T00:08:47.006Z,98105.09
2022-08-18T00:11:13.643Z,98099.09
2022-08-18T00:13:40.065Z,98094.09
2022-08-18T00:16:06.885Z,98081.22
2022-08-18T00:18:33.368Z,98082.91
2022-08-18T00:21:00.253Z,98092.44
2022-08-18T00:23:28.765Z,98077.09
2022-08-18T00:25:55.617Z,98079.16
2022-08-18T00:28:23.902Z,98090.16
2022-08-18T00:30:54.154Z,98087.88
2022-08-18T00:33:21.325Z,98086.84
2022-08-18T00:35:48.513Z,98087.66
2022-08-18T00:38:23.266Z,98088.28
2022-08-18T00:40:53.295Z,98086.19
2022-08-18T00:43:24.920Z,98086.63
2022-08-18T00:45:51.439Z,98086.84
2022-08-18T00:48:18.718Z,98080.59
2022-08-18T00:50:49.454Z,98091.19
2022-08-18T00:53:29.433Z,98089.13
2022-08-18T00:56:00.306Z,98099.47
2022-08-18T00:58:39.156Z,98101.75
2022-08-18T01:01:08.667Z,98110.47
2022-08-18T01:03:39.780Z,98111.53
2022-08-18T01:06:21.644Z,98123.16
2022-08-18T01:08:48.197Z,98123.16
2022-08-18T01:11:15.125Z,98124.81
2022-08-18T01:13:43.065Z,98121.50
2022-08-18T01:16:28.696Z,98109.47
2022-08-18T01:19:13.810Z,98109.47
2022-08-18T01:21:52.171Z,98101.97
2022-08-18T01:24:47.437Z,98099.50
2022-08-18T01:27:18.196Z,98101.38
2022-08-18T01:29:49.325Z,98108.63
2022-08-18T01:32:19.700Z,98102.78
2022-08-18T01:34:51.827Z,98114.41
2022-08-18T01:37:22.364Z,98109.63
2022-08-18T01:41:24.227Z,98114.63
2022-08-18T01:42:38.573Z,98110.50
2022-08-18T01:45:07.973Z,98117.53
2022-08-18T01:47:48.042Z,98115.66
2022-08-18T01:50:15.849Z,98111.72
2022-08-18T01:52:42.380Z,98120.00
2022-08-18T01:55:09.624Z,98118.56
2022-08-18T01:57:45.092Z,98115.22
2022-08-18T02:00:17.558Z,98117.72
2022-08-18T02:02:44.859Z,98124.16
2022-08-18T02:05:24.849Z,98123.75
2022-08-18T02:07:54.069Z,98127.06
2022-08-18T02:10:21.054Z,98131.63
2022-08-18T02:12:47.657Z,98133.50
2022-08-18T02:15:14.305Z,98128.09
2022-08-18T02:17:43.207Z,98122.72
2022-08-18T02:20:12.986Z,98117.53
2022-08-18T02:22:39.715Z,98122.31
2022-08-18T02:25:07.058Z,98108.19
2022-08-18T02:27:34.180Z,98117.09
2022-08-18T02:30:02.254Z,98115.28
2022-08-18T02:32:29.408Z,98116.72
2022-08-18T02:34:56.167Z,98113.59
2022-08-18T02:37:22.999Z,98115.66
2022-08-18T02:39:49.542Z,98117.31
2022-08-18T02:42:16.307Z,98123.97
2022-08-18T02:44:42.836Z,98116.28
2022-08-18T02:47:09.445Z,98119.59
2022-08-18T02:49:36.865Z,98112.75
2022-08-18T02:52:03.866Z,98116.50
2022-08-18T02:54:30.325Z,98119.41
2022-08-18T02:56:57.436Z,98114.00
2022-08-18T02:59:27.475Z,98118.16
2022-08-18T03:01:56.061Z,98116.28
2022-08-18T03:04:29.674Z,98116.88
2022-08-18T03:06:59.747Z,98116.50
2022-08-18T03:09:26.461Z,98121.28
2022-08-18T03:11:53.553Z,98109.44
2022-08-18T03:14:20.801Z,98112.09
2022-08-18T03:16:54.240Z,98116.66
2022-08-18T03:19:31.851Z,98122.50
2022-08-18T03:22:03.023Z,98117.50
2022-08-18T03:24:32.223Z,98123.31
2022-08-18T03:26:59.318Z,98123.75
2022-08-18T03:29:31.337Z,98120.84
2022-08-18T03:32:04.071Z,98122.28
2022-08-18T03:34:31.588Z,98118.75
2022-08-18T03:36:58.891Z,98130.19
2022-08-18T03:39:27.630Z,98116.88
2022-08-18T03:42:01.200Z,98122.28
2022-08-18T03:44:36.971Z,98126.22
2022-08-18T03:47:07.566Z,98134.31
2022-08-18T03:49:34.216Z,98130.19
2022-08-18T03:52:01.412Z,98127.88
2022-08-18T03:54:32.069Z,98132.22
2022-08-18T03:57:00.198Z,98127.88
2022-08-18T03:59:27.213Z,98130.97
2022-08-18T04:01:55.320Z,98126.03
2022-08-18T04:04:25.693Z,98122.28
2022-08-18T04:07:14.474Z,98127.28
2022-08-18T04:09:41.887Z,98130.38
2022-08-18T04:12:16.974Z,98125.63
2022-08-18T04:14:48.771Z,98122.28
2022-08-18T04:17:25.946Z,98114.63
2022-08-18T04:19:54.084Z,98119.59
2022-08-18T04:22:21.042Z,98110.88
2022-08-18T04:24:50.279Z,98109.84
2022-08-18T04:27:17.911Z,98107.75
2022-08-18T04:29:44.415Z,98114.00
2022-08-18T04:32:11.009Z,98113.19
2022-08-18T04:34:37.534Z,98111.72
2022-08-18T04:37:05.499Z,98110.47
2022-08-18T04:39:32.089Z,98112.53
2022-08-18T04:41:59.332Z,98109.03
2022-08-18T04:44:27.167Z,98112.97
2022-08-18T04:46:54.321Z,98107.81
2022-08-18T04:49:25.521Z,98116.50
2022-08-18T04:52:36.138Z,98116.06
2022-08-18T04:55:00.929Z,98117.31
2022-08-18T04:57:28.562Z,98121.50
2022-08-18T04:59:55.111Z,98117.09
2022-08-18T05:02:22.131Z,98125.41
2022-08-18T05:04:48.911Z,98118.81
2022-08-18T05:07:19.032Z,98127.94
2022-08-18T05:09:46.503Z,98121.50
2022-08-18T05:12:15.395Z,98121.72
2022-08-18T05:14:46.955Z,98129.78
2022-08-18T05:17:15.048Z,98130.19
2022-08-18T05:19:44.371Z,98130.81
2022-08-18T05:22:17.754Z,98139.06
2022-08-18T05:24:47.490Z,98139.72
2022-08-18T05:27:14.534Z,98139.28
2022-08-18T05:29:45.917Z,98147.19
2022-08-18T05:32:30.836Z,98144.03
2022-08-18T05:35:31.815Z,98145.66
2022-08-18T05:38:22.613Z,98147.50
2022-08-18T05:41:13.750Z,98148.75
2022-08-18T05:43:51.744Z,98150.00
2022-08-18T05:46:21.887Z,98143.13
2022-08-18T05:48:48.643Z,98150.00
2022-08-18T05:51:33.734Z,98156.22
2022-08-18T05:54:21.039Z,98155.34
2022-08-18T05:56:51.741Z,98157.41
2022-08-18T05:59:21.569Z,98159.50
2022-08-18T06:01:55.754Z,98164.69
2022-08-18T06:04:57.021Z,98166.69
2022-08-18T06:07:47.032Z,98165.00
2022-08-18T06:10:14.941Z,98162.69
2022-08-18T06:12:49.372Z,98167.47
2022-08-18T06:15:24.124Z,98170.53
2022-08-18T06:18:12.050Z,98168.84
2022-08-18T06:20:45.907Z,98163.22
2022-08-18T06:23:39.354Z,98159.19
2022-08-18T06:26:18.094Z,98157.84
2022-08-18T06:28:49.425Z,98153.00
2022-08-18T06:31:40.744Z,98157.78
2022-08-18T06:34:20.588Z,98148.16
2022-08-18T06:37:08.249Z,98153.78
2022-08-18T06:39:46.804Z,98154.38
2022-08-18T06:42:17.746Z,98146.25
2022-08-18T06:44:59.127Z,98137.03
2022-08-18T06:47:54.691Z,98125.47
2022-08-18T06:50:26.142Z,98116.84
2022-08-18T06:52:54.439Z,98126.09
2022-08-18T06:55:40.527Z,98131.38
2022-08-18T06:58:13.561Z,98134.28
2022-08-18T07:00:56.002Z,98133.22
2022-08-18T07:03:54.855Z,98146.78
2022-08-18T07:06:21.439Z,98143.16
2022-08-18T07:08:54.604Z,98151.88
2022-08-18T07:11:33.330Z,98154.31
2022-08-18T07:14:17.059Z,98159.91
2022-08-18T07:16:58.215Z,98151.25
2022-08-18T07:19:29.958Z,98162.81
2022-08-18T07:22:17.288Z,98150.84
2022-08-18T07:24:47.770Z,98152.25
2022-08-18T07:27:20.055Z,98157.59
2022-08-18T07:30:06.151Z,98157.91
2022-08-18T07:32:39.645Z,98156.31
2022-08-18T07:35:09.186Z,98158.06
2022-08-18T07:37:50.372Z,98172.44
2022-08-18T07:40:52.168Z,98169.78
2022-08-18T07:43:28.786Z,98183.28
2022-08-18T07:46:06.010Z,98176.16
2022-08-18T07:48:38.783Z,98174.84
2022-08-18T07:51:24.461Z,98172.72
2022-08-18T07:53:58.084Z,98177.69
2022-08-18T07:56:44.254Z,98180.28
2022-08-18T07:59:29.192Z,98181.22
2022-08-18T08:02:10.542Z,98181.59
2022-08-18T08:04:41.850Z,98189.56
2022-08-18T08:07:24.760Z,98195.75
2022-08-18T08:10:06.850Z,98194.19
2022-08-18T08:12:50.314Z,98208.75
2022-08-18T08:15:34.034Z,98208.06
2022-08-18T08:18:17.302Z,98203.22
2022-08-18T08:20:51.543Z,98211.31
2022-08-18T08:23:33.370Z,98207.22
2022-08-18T08:26:31.269Z,98205.94
2022-08-18T08:29:36.467Z,98217.56
2022-08-18T08:32:12.246Z,98208.97
2022-08-18T08:34:45.794Z,98219.81
2022-08-18T08:37:30.817Z,98209.50
2022-08-18T08:40:15.836Z,98214.97
2022-08-18T08:42:52.993Z,98223.78
2022-08-18T08:45:30.604Z,98221.03
2022-08-18T08:48:26.942Z,98220.81
2022-08-18T08:50:53.357Z,98225.22
2022-08-18T08:53:31.735Z,98233.00
2022-08-18T08:56:02.958Z,98234.63
2022-08-18T08:58:37.595Z,98236.53
2022-08-18T09:01:05.720Z,98230.56
2022-08-18T09:03:56.213Z,98222.22
2022-08-18T09:06:34.955Z,98235.56
2022-08-18T09:09:13.568Z,98236.53
2022-08-18T09:11:51.940Z,98240.56
2022-08-18T09:14:49.404Z,98239.59
2022-08-18T09:17:50.699Z,98239.34
2022-08-18T09:20:54.764Z,98245.13
2022-08-18T09:23:26.125Z,98242.38
2022-08-18T09:26:00.349Z,98242.13
2022-08-18T09:28:29.944Z,98243.81
2022-08-18T09:31:08.715Z,98235.81
2022-08-18T09:33:45.301Z,98236.34
2022-08-18T09:36:30.258Z,98221.16
2022-08-18T09:39:38.446Z,98219.84
2022-08-18T09:42:14.273Z,98215.13
2022-08-18T09:44:48.535Z,98221.59
2022-08-18T09:50:24.584Z,98219.88
2022-08-18T09:53:02.397Z,98221.28
2022-08-18T09:55:31.970Z,98228.72
2022-08-18T09:58:20.138Z,98222.41
2022-08-18T10:01:19.909Z,98225.75
2022-08-18T10:04:15.829Z,98233.50
2022-08-18T10:06:51.080Z,98220.06
2022-08-18T10:09:36.290Z,98213.78
2022-08-18T10:12:31.990Z,98212.88
2022-08-18T10:15:37.503Z,98215.00
2022-08-18T10:18:22.577Z,98217.75
2022-08-18T10:21:22.804Z,98212.94
2022-08-18T10:24:29.889Z,98218.91
2022-08-18T10:26:54.257Z,98215.03
2022-08-18T10:29:27.687Z,98213.50
2022-08-18T10:31:57.408Z,98213.53
2022-08-18T10:37:44.325Z,98207.91
2022-08-18T10:40:14.076Z,98201.56
2022-08-18T10:42:45.529Z,98208.06
2022-08-18T10:45:31.603Z,98215.41
2022-08-18T10:48:24.435Z,98213.63
2022-08-18T10:51:09.110Z,98210.75
2022-08-18T10:53:45.724Z,98216.66
2022-08-18T10:56:31.722Z,98221.28
2022-08-18T10:59:17.275Z,98223.50
2022-08-18T11:02:18.625Z,98232.88
2022-08-18T11:04:58.809Z,98228.97
2022-08-18T11:07:30.961Z,98227.19
2022-08-18T11:10:29.527Z,98218.38
2022-08-18T11:13:07.365Z,98210.47
2022-08-18T11:16:02.938Z,98202.13
2022-08-18T11:18:38.980Z,98219.63
2022-08-18T11:21:37.636Z,98217.72
2022-08-18T11:24:13.989Z,98220.19
2022-08-18T11:26:53.067Z,98220.03
2022-08-18T11:29:34.116Z,98212.84
2022-08-18T11:32:19.664Z,98214.34
2022-08-18T11:34:59.868Z,98219.69
2022-08-18T11:37:51.848Z,98217.22
2022-08-18T11:41:02.361Z,98217.47
2022-08-18T11:43:21.202Z,98229.06
2022-08-18T11:45:48.195Z,98234.50
2022-08-18T11:48:14.657Z,98221.63
2022-08-18T11:50:54.561Z,98207.41
2022-08-18T11:53:36.673Z,98172.19
2022-08-18T11:56:14.459Z,98145.41
2022-08-18T11:58:45.887Z,98131.78
2022-08-18T12:01:41.531Z,98127.94
2022-08-18T12:04:14.521Z,98111.19
2022-08-18T12:06:59.906Z,98094.06
2022-08-18T12:12:31.083Z,98125.97
2022-08-18T12:15:25.522Z,98130.66
2022-08-18T12:17:56.287Z,98122.47
2022-08-18T12:20:22.968Z,98123.44
2022-08-18T12:22:50.285Z,98130.63
2022-08-18T12:25:24.825Z,98145.19
2022-08-18T12:27:52.389Z,98132.03
2022-08-18T12:30:19.922Z,98127.63
2022-08-18T12:35:34.989Z,98140.19
2022-08-18T12:38:04.882Z,98137.50
2022-08-18T12:40:48.397Z,98123.53
2022-08-18T12:43:14.875Z,98111.84
2022-08-18T12:45:42.956Z,98099.13
2022-08-18T12:48:09.599Z,98099.19
2022-08-18T12:50:49.725Z,98099.63
2022-08-18T12:53:30.587Z,98097.06
2022-08-18T12:56:17.121Z,98101.94
2022-08-18T12:58:46.308Z,98110.13
2022-08-18T13:01:12.926Z,98106.78
2022-08-18T13:03:45.349Z,98083.97
2022-08-18T13:06:19.872Z,98096.56
2022-08-18T13:08:50.121Z,98091.97
2022-08-18T13:11:23.683Z,98095.19
2022-08-18T13:13:56.098Z,98095.25
2022-08-18T13:16:38.891Z,98098.06
2022-08-18T13:19:13.145Z,98101.50
2022-08-18T13:21:43.061Z,98109.75
2022-08-18T13:24:10.444Z,98114.34
2022-08-18T13:26:43.227Z,98110.44
2022-08-18T13:29:14.192Z,98108.56
2022-08-18T13:31:41.022Z,98111.22
2022-08-18T13:34:19.326Z,98095.34
2022-08-18T13:36:48.241Z,98094.91
2022-08-18T13:39:20.291Z,98088.81
2022-08-18T13:41:48.929Z,98084.53
2022-08-18T13:44:18.641Z,98080.16
2022-08-18T13:46:47.996Z,98073.84
2022-08-18T13:49:29.943Z,98079.69
2022-08-18T13:51:59.227Z,98083.69
2022-08-18T13:54:35.256Z,98086.69
2022-08-18T13:57:03.687Z,98076.34
2022-08-18T13:59:34.171Z,98075.63
2022-08-18T14:02:05.672Z,98070.13
2022-08-18T14:04:36.168Z,98073.22
2022-08-18T14:07:07.322Z,98071.09
2022-08-18T14:09:38.042Z,98072.38
2022-08-18T14:12:07.352Z,98074.53
2022-08-18T14:14:42.734Z,98072.53
2022-08-18T14:17:09.217Z,98069.91
2022-08-18T14:19:54.147Z,98068.56
2022-08-18T14:22:41.599Z,98065.97
2022-08-18T14:25:28.080Z,98055.47
2022-08-18T14:27:56.845Z,98066.84
2022-08-18T14:30:23.852Z,98056.66
2022-08-18T14:32:50.466Z,98052.81
2022-08-18T14:35:33.361Z,98062.94
2022-08-18T14:38:02.520Z,98060.19
2022-08-18T14:40:31.500Z,98059.63
2022-08-18T14:42:58.650Z,98055.72
2022-08-18T14:45:31.574Z,98041.31
2022-08-18T14:48:06.651Z,98038.41
2022-08-18T14:50:35.055Z,98036.72
2022-08-18T14:53:01.745Z,98042.88
2022-08-18T14:55:28.266Z,98037.03
2022-08-18T14:57:59.400Z,98032.28
2022-08-18T15:00:27.829Z,98026.75
2022-08-18T15:02:54.580Z,98025.84
2022-08-18T15:05:24.202Z,98027.00
2022-08-18T15:07:51.746Z,98027.22
2022-08-18T15:10:19.896Z,98022.44
2022-08-18T15:12:50.317Z,98025.78
2022-08-18T15:15:18.377Z,98026.91
2022-08-18T15:17:45.401Z,98028.53
2022-08-18T15:20:19.169Z,98026.41
2022-08-18T15:23:04.844Z,98030.84
2022-08-18T15:25:44.814Z,98027.44
2022-08-18T15:28:23.720Z,98040.28
2022-08-18T15:31:16.596Z,98033.44
2022-08-18T15:33:39.276Z,98039.84
2022-08-18T15:36:09.741Z,98038.47
2022-08-18T15:38:37.299Z,98035.63
2022-08-18T15:41:06.129Z,98035.34
2022-08-18T15:43:45.818Z,98036.00
2022-08-18T15:46:14.035Z,98037.50
2022-08-18T15:48:43.612Z,98041.00
2022-08-18T15:51:12.159Z,98035.00
2022-08-18T15:53:44.445Z,98038.47
2022-08-18T15:56:20.989Z,98029.56
2022-08-18T15:58:48.188Z,98029.84
2022-08-18T16:01:30.410Z,98026.44
2022-08-18T16:03:59.668Z,98022.84
2022-08-18T16:06:27.528Z,98023.44
2022-08-18T16:08:54.957Z,98027.25
2022-08-18T16:11:28.935Z,98026.81
2022-08-18T16:13:58.618Z,98023.25
2022-08-18T16:16:29.347Z,98022.16
2022-08-18T16:19:04.168Z,98021.91
2022-08-18T16:21:30.697Z,98019.38
2022-08-18T16:23:57.115Z,98015.31
2022-08-18T16:26:23.892Z,98019.97
2022-08-18T16:28:52.308Z,98023.75
2022-08-18T16:31:24.826Z,98019.63
2022-08-18T16:33:53.434Z,98026.16
2022-08-18T16:36:20.521Z,98025.56
2022-08-18T16:38:47.293Z,98024.44
2022-08-18T16:41:15.841Z,98023.09
2022-08-18T16:43:44.612Z,98022.69
2022-08-18T16:46:23.126Z,98017.69
2022-08-18T16:48:49.828Z,98022.63
2022-08-18T16:51:19.773Z,98015.91
2022-08-18T16:53:47.424Z,98012.44
2022-08-18T16:56:19.337Z,98006.09
2022-08-18T16:59:05.269Z,98006.97
2022-08-18T17:01:52.068Z,98003.47
2022-08-18T17:04:22.449Z,98003.59
2022-08-18T17:06:50.097Z,98008.56
2022-08-18T17:09:18.588Z,98007.09
2022-08-18T17:11:47.972Z,98011.53
2022-08-18T17:14:19.826Z,98014.31
2022-08-18T17:16:49.079Z,98009.91
2022-08-18T17:19:15.548Z,98012.97
2022-08-18T17:21:42.011Z,98008.63
2022-08-18T17:24:10.565Z,98001.94
2022-08-18T17:26:53.240Z,98003.69
2022-08-18T17:29:43.512Z,97994.16
2022-08-18T17:32:20.126Z,98000.91
2022-08-18T17:34:51.860Z,98008.28
2022-08-18T17:37:23.150Z,98004.34
2022-08-18T17:39:57.529Z,98013.59
2022-08-18T17:42:26.835Z,98017.38
2022-08-18T17:44:59.059Z,98023.44
2022-08-18T17:47:33.267Z,98026.44
2022-08-18T17:50:28.764Z,98033.44
2022-08-18T17:53:07.393Z,98034.53
2022-08-18T17:55:49.728Z,98042.34
2022-08-18T17:58:42.153Z,98040.47
2022-08-18T18:01:10.441Z,98037.94
2022-08-18T18:03:38.004Z,98045.53
2022-08-18T18:06:18.475Z,98045.97
2022-08-18T18:08:49.453Z,98050.63
2022-08-18T18:11:15.917Z,98058.31
2022-08-18T18:13:42.464Z,98061.13
2022-08-18T18:16:36.156Z,98068.56
2022-08-18T18:19:06.102Z,98070.94
2022-08-18T18:22:00.504Z,98069.50
2022-08-18T18:24:30.647Z,98063.25
2022-08-18T18:26:57.105Z,98061.00
2022-08-18T18:29:35.698Z,98065.94
2022-08-18T18:32:24.714Z,98069.81
2022-08-18T18:35:12.307Z,98069.50
2022-08-18T18:37:49.051Z,98072.38
2022-08-18T18:40:24.137Z,98066.84
2022-08-18T18:42:51.117Z,98066.31
2022-08-18T18:45:36.017Z,98070.34
2022-08-18T18:48:38.686Z,98081.31
2022-08-18T18:51:19.306Z,98078.94
2022-08-18T18:54:12.739Z,98082.16
2022-08-18T18:56:45.630Z,98077.19
2022-08-18T18:59:15.046Z,98074.84
2022-08-18T19:01:55.536Z,98075.53
2022-08-18T19:04:39.295Z,98089.59
2022-08-18T19:07:26.247Z,98085.44
2022-08-18T19:10:18.568Z,98070.22
2022-08-18T19:12:56.934Z,98073.19
2022-08-18T19:15:25.576Z,98080.63
2022-08-18T19:18:00.479Z,98084.41
2022-08-18T19:20:39.357Z,98072.94
2022-08-18T19:23:34.228Z,98083.22
2022-08-18T19:26:18.895Z,98067.63
2022-08-18T19:29:12.796Z,98069.59
2022-08-18T19:31:40.634Z,98073.00
2022-08-18T19:34:12.472Z,98075.38
2022-08-18T19:36:48.823Z,98069.63
2022-08-18T19:39:26.628Z,98077.63
2022-08-18T19:42:02.342Z,98083.28
2022-08-18T19:44:34.943Z,98079.06
2022-08-18T19:47:27.967Z,98082.00
2022-08-18T19:50:13.667Z,98089.72
2022-08-18T19:53:01.736Z,98085.31
2022-08-18T19:55:47.402Z,98091.06
2022-08-18T19:58:37.718Z,98092.69
2022-08-18T20:01:20.999Z,98096.88
2022-08-18T20:04:09.496Z,98094.88
2022-08-18T20:06:49.924Z,98096.97
2022-08-18T20:09:28.427Z,98092.38
2022-08-18T20:12:04.400Z,98086.38
2022-08-18T20:14:39.072Z,98081.53
2022-08-18T20:17:23.593Z,98074.63
2022-08-18T20:19:59.122Z,98066.34
2022-08-18T20:22:32.272Z,98068.41
2022-08-18T20:25:19.824Z,98075.97
2022-08-18T20:28:12.881Z,98078.88
2022-08-18T20:30:58.365Z,98079.34
2022-08-18T20:33:25.812Z,98079.09
2022-08-18T20:35:58.295Z,98072.63
2022-08-18T20:38:31.593Z,98080.25
2022-08-18T20:40:59.890Z,98072.22
2022-08-18T20:43:32.820Z,98071.50
2022-08-18T20:46:20.119Z,98085.94
2022-08-18T20:49:06.893Z,98080.47
2022-08-18T20:51:43.780Z,98086.91
2022-08-18T20:54:39.754Z,98080.59
2022-08-18T20:57:24.638Z,98094.41
2022-08-18T20:59:58.514Z,98085.91
2022-08-18T21:02:35.001Z,98090.13
2022-08-18T21:05:02.122Z,98091.63
2022-08-18T21:07:38.025Z,98090.31
2022-08-18T21:10:18.449Z,98097.47
2022-08-18T21:12:52.168Z,98102.41
2022-08-18T21:15:25.612Z,98090.75
2022-08-18T21:18:04.608Z,98085.34
2022-08-18T21:20:33.033Z,98090.31
2022-08-18T21:23:11.641Z,98102.06
2022-08-18T21:25:54.487Z,98110.16
2022-08-18T21:28:22.668Z,98105.81
2022-08-18T21:31:30.813Z,98114.88
2022-08-18T21:33:49.774Z,98112.81
2022-08-18T21:36:18.727Z,98111.00
2022-08-18T21:39:06.240Z,98113.59
2022-08-18T21:41:39.314Z,98107.69
2022-08-18T21:44:16.686Z,98097.22
2022-08-18T21:46:45.564Z,98098.44
2022-08-18T21:49:12.301Z,98096.13
2022-08-18T21:51:46.321Z,98096.13
2022-08-18T21:54:21.117Z,98101.31
2022-08-18T21:56:50.946Z,98107.59
2022-08-18T21:59:20.580Z,98102.47
2022-08-18T22:01:56.605Z,98109.34
2022-08-18T22:04:33.574Z,98101.03
2022-08-18T22:07:03.926Z,98102.88
2022-08-18T22:09:51.894Z,98102.88
2022-08-18T22:12:42.933Z,98100.59
2022-08-18T22:15:36.859Z,98106.00
2022-08-18T22:18:03.285Z,98106.47
2022-08-18T22:20:44.509Z,98100.91
2022-08-18T22:23:32.296Z,98095.56
2022-08-18T22:26:26.307Z,98095.78
2022-08-18T22:28:58.782Z,98096.41
2022-08-18T22:31:29.340Z,98101.59
2022-08-18T22:33:56.649Z,98108.16
2022-08-18T22:36:28.586Z,98124.09
2022-08-18T22:38:55.598Z,98122.16
2022-08-18T22:41:22.332Z,98115.06
2022-08-18T22:43:54.632Z,98125.88
2022-08-18T22:46:24.225Z,98124.88
2022-08-18T22:48:52.276Z,98133.22
2022-08-18T22:51:23.664Z,98138.88
2022-08-18T22:53:50.691Z,98131.28
2022-08-18T22:56:33.936Z,98134.84
2022-08-18T22:59:09.693Z,98131.16
2022-08-18T23:01:41.598Z,98143.63
2022-08-18T23:04:08.124Z,98140.06
2022-08-18T23:06:34.937Z,98147.97
2022-08-18T23:09:02.331Z,98146.28
2022-08-18T23:11:29.167Z,98148.09
2022-08-18T23:13:56.268Z,98151.88
2022-08-18T23:16:31.209Z,98150.69
2022-08-18T23:19:02.041Z,98152.81
2022-08-18T23:21:34.452Z,98149.06
2022-08-18T23:24:03.817Z,98155.06
2022-08-18T23:26:30.555Z,98150.72
2022-08-18T23:28:57.636Z,98157.41
2022-08-18T23:31:24.111Z,98147.41
2022-08-18T23:33:50.608Z,98149.88
2022-08-18T23:36:17.819Z,98144.84
2022-08-18T23:38:44.677Z,98146.06
2022-08-18T23:41:13.189Z,98149.41
2022-08-18T23:43:39.820Z,98143.38
2022-08-18T23:46:16.933Z,98146.28
2022-08-18T23:48:49.592Z,98138.88
2022-08-18T23:51:36.993Z,98151.78
2022-08-18T23:54:07.285Z,98141.38
2022-08-18T23:56:35.139Z,98142.22
2022-08-18T23:59:02.377Z,98141.53
